Time;durP1;ratioP1;P1;durP2;ratioP2;P2;SDS_P1;SDS_P2;PMS_P1;PMS_P2;Temp;Humidity;BMP_temperature;BMP_pressure;BME280_temperature;BME280_humidity;BME280_pressure;Samples;Min_cycle;Max_cycle;Signal;HPM_P1;HPM_P2
2022/09/20 00:00:38;;;;;;;4.20;1.63;;;;;;;;;;5006333;28;20723;-54
2022/09/20 00:03:05;;;;;;;2.23;1.43;;;;;;;;;;5002346;28;20243;-52
2022/09/20 00:05:35;;;;;;;1.20;0.90;;;;;;;;;;4997973;28;20282;-54
2022/09/20 00:08:04;;;;;;;2.03;1.30;;;;;;;;;;5004033;28;20738;-54
2022/09/20 00:10:34;;;;;;;1.20;0.90;;;;;;;;;;4981429;28;20462;-55
2022/09/20 00:13:02;;;;;;;1.20;0.80;;;;;;;;;;4999955;28;20663;-55
2022/09/20 00:15:28;;;;;;;1.73;0.90;;;;;;;;;;4999323;28;20224;-55
2022/09/20 00:17:55;;;;;;;1.83;0.80;;;;;;;;;;4999816;28;20232;-55
2022/09/20 00:20:22;;;;;;;0.80;0.70;;;;;;;;;;4998574;28;20224;-53
2022/09/20 00:22:48;;;;;;;0.90;0.80;;;;;;;;;;5006191;28;20278;-53
2022/09/20 00:25:16;;;;;;;1.43;0.80;;;;;;;;;;4992236;28;20584;-55
2022/09/20 00:27:42;;;;;;;1.73;1.00;;;;;;;;;;4987089;28;20726;-54
2022/09/20 00:30:09;;;;;;;1.60;0.80;;;;;;;;;;4986314;28;20234;-57
2022/09/20 00:32:35;;;;;;;2.87;0.90;;;;;;;;;;5000537;28;20262;-58
2022/09/20 00:35:09;;;;;;;1.93;0.93;;;;;;;;;;5000962;28;20232;-57
2022/09/20 00:37:38;;;;;;;1.17;0.77;;;;;;;;;;4984552;28;20446;-54
2022/09/20 00:40:08;;;;;;;1.50;0.83;;;;;;;;;;4996613;28;20286;-56
2022/09/20 00:42:35;;;;;;;0.87;0.80;;;;;;;;;;4997553;28;20298;-56
2022/09/20 00:45:07;;;;;;;0.87;0.70;;;;;;;;;;4993199;28;20224;-52
2022/09/20 00:47:38;;;;;;;0.80;0.70;;;;;;;;;;5003584;28;20228;-54
2022/09/20 00:50:34;;;;;;;1.03;0.80;;;;;;;;;;4983805;28;20235;-54
2022/09/20 00:53:19;;;;;;;2.57;1.13;;;;;;;;;;4994218;28;20248;-57
2022/09/20 00:55:51;;;;;;;1.37;0.73;;;;;;;;;;4996648;28;20712;-57
2022/09/20 00:58:18;;;;;;;0.73;0.67;;;;;;;;;;4984480;28;20659;-55
2022/09/20 01:00:45;;;;;;;1.73;0.80;;;;;;;;;;4977206;28;20205;-55
2022/09/20 01:03:12;;;;;;;2.00;1.27;;;;;;;;;;4980678;28;20217;-54
2022/09/20 01:05:39;;;;;;;1.43;0.80;;;;;;;;;;5001131;28;20231;-55
2022/09/20 01:08:05;;;;;;;1.13;0.80;;;;;;;;;;4984598;28;20258;-54
2022/09/20 01:10:32;;;;;;;2.07;1.03;;;;;;;;;;4979404;28;20232;-55
2022/09/20 01:12:58;;;;;;;0.83;0.77;;;;;;;;;;4987302;28;20243;-58
2022/09/20 01:15:26;;;;;;;0.90;0.80;;;;;;;;;;5007509;28;20196;-55
2022/09/20 01:17:54;;;;;;;1.20;0.93;;;;;;;;;;5006915;28;20227;-55
2022/09/20 01:20:24;;;;;;;1.33;0.97;;;;;;;;;;4977826;28;20704;-58
2022/09/20 01:22:55;;;;;;;1.20;0.90;;;;;;;;;;4983631;28;20225;-52
2022/09/20 01:25:46;;;;;;;0.90;0.63;;;;;;;;;;4976929;28;20243;-55
2022/09/20 01:28:12;;;;;;;1.10;0.80;;;;;;;;;;5003136;28;20357;-55
2022/09/20 01:31:20;;;;;;;1.07;0.87;;;;;;;;;;5002473;28;20196;-53
2022/09/20 01:33:57;;;;;;;1.20;0.80;;;;;;;;;;4984777;28;20278;-54
2022/09/20 01:36:44;;;;;;;1.30;0.80;;;;;;;;;;4982278;28;20611;-53
2022/09/20 01:39:31;;;;;;;0.80;0.70;;;;;;;;;;4983018;28;20227;-56
2022/09/20 01:42:04;;;;;;;1.50;0.90;;;;;;;;;;4998090;28;20232;-55
2022/09/20 01:44:39;;;;;;;1.20;0.80;;;;;;;;;;4985262;28;20288;-54
2022/09/20 01:47:19;;;;;;;1.90;1.10;;;;;;;;;;4986109;28;20200;-57
2022/09/20 01:50:04;;;;;;;1.43;0.80;;;;;;;;;;4983135;28;20884;-54
2022/09/20 01:52:49;;;;;;;1.03;0.80;;;;;;;;;;5004719;28;20240;-58
2022/09/20 01:55:18;;;;;;;1.87;0.80;;;;;;;;;;5007762;28;20602;-56
2022/09/20 01:58:09;;;;;;;1.70;0.63;;;;;;;;;;5003962;28;20243;-56
2022/09/20 02:00:57;;;;;;;1.03;0.80;;;;;;;;;;4993642;28;20200;-60
2022/09/20 02:03:30;;;;;;;1.23;0.80;;;;;;;;;;5001239;28;20225;-56
2022/09/20 02:06:08;;;;;;;1.43;1.00;;;;;;;;;;5003969;28;20196;-54
2022/09/20 02:08:49;;;;;;;1.03;0.70;;;;;;;;;;4994011;28;20726;-52
2022/09/20 02:11:18;;;;;;;1.80;1.00;;;;;;;;;;4996526;28;20299;-53
2022/09/20 02:14:05;;;;;;;1.33;0.70;;;;;;;;;;4997213;28;20303;-52
2022/09/20 02:16:48;;;;;;;1.50;1.00;;;;;;;;;;4968305;28;20196;-56
2022/09/20 02:19:39;;;;;;;2.07;0.97;;;;;;;;;;4989792;28;20215;-51
2022/09/20 02:22:18;;;;;;;1.00;0.90;;;;;;;;;;4989937;28;20250;-56
2022/09/20 02:25:06;;;;;;;1.90;0.90;;;;;;;;;;5000247;28;20255;-52
2022/09/20 02:28:03;;;;;;;1.57;1.10;;;;;;;;;;4983135;28;20704;-53
2022/09/20 02:30:38;;;;;;;1.23;0.93;;;;;;;;;;4999414;28;20235;-51
2022/09/20 02:33:21;;;;;;;1.97;0.90;;;;;;;;;;4998853;28;20270;-56
2022/09/20 02:36:09;;;;;;;2.50;1.00;;;;;;;;;;4998778;28;20239;-52
2022/09/20 02:38:42;;;;;;;1.90;1.20;;;;;;;;;;5002057;28;20192;-60
2022/09/20 02:41:36;;;;;;;6.23;1.70;;;;;;;;;;4976975;28;20231;-53
2022/09/20 02:44:08;;;;;;;2.17;0.80;;;;;;;;;;4997953;28;20295;-54
2022/09/20 02:46:57;;;;;;;2.50;0.87;;;;;;;;;;4998011;28;20236;-55
2022/09/20 02:49:51;;;;;;;0.90;0.80;;;;;;;;;;4984271;28;20819;-52
2022/09/20 02:52:46;;;;;;;1.00;0.77;;;;;;;;;;4982765;28;20300;-52
2022/09/20 02:55:16;;;;;;;1.33;0.90;;;;;;;;;;4987809;28;20263;-51
2022/09/20 02:57:54;;;;;;;3.17;1.00;;;;;;;;;;4981984;28;20239;-52
2022/09/20 03:00:29;;;;;;;1.00;0.90;;;;;;;;;;4984125;28;20275;-51
2022/09/20 03:03:12;;;;;;;1.17;0.80;;;;;;;;;;4978426;28;20733;-52
2022/09/20 03:05:48;;;;;;;1.13;0.90;;;;;;;;;;4983501;28;20244;-54
2022/09/20 03:08:40;;;;;;;1.07;0.73;;;;;;;;;;4985068;28;20290;-52
2022/09/20 03:11:23;;;;;;;0.60;0.60;;;;;;;;;;4983010;28;20221;-51
2022/09/20 03:14:26;;;;;;;1.20;0.80;;;;;;;;;;4998194;28;20303;-52
2022/09/20 03:17:05;;;;;;;1.00;0.90;;;;;;;;;;4985916;28;20671;-52
2022/09/20 03:19:47;;;;;;;1.97;0.90;;;;;;;;;;4980978;28;20633;-55
2022/09/20 03:22:38;;;;;;;1.83;0.90;;;;;;;;;;4974522;28;20704;-53
2022/09/20 03:25:56;;;;;;;1.40;0.80;;;;;;;;;;5002173;28;20291;-53
2022/09/20 03:28:46;;;;;;;0.90;0.80;;;;;;;;;;4959886;28;20224;-51
2022/09/20 03:31:29;;;;;;;1.10;0.83;;;;;;;;;;4997591;28;20211;-55
2022/09/20 03:34:08;;;;;;;1.30;1.00;;;;;;;;;;4983703;28;20233;-55
2022/09/20 03:36:41;;;;;;;1.13;0.87;;;;;;;;;;5001282;28;20287;-52
2022/09/20 03:39:19;;;;;;;1.50;0.90;;;;;;;;;;4995211;28;20226;-52
2022/09/20 03:41:55;;;;;;;1.53;0.93;;;;;;;;;;4996586;28;20231;-51
2022/09/20 03:44:35;;;;;;;1.20;0.90;;;;;;;;;;4998482;28;20224;-52
2022/09/20 03:47:30;;;;;;;1.13;1.00;;;;;;;;;;4980304;28;20276;-51
2022/09/20 03:50:25;;;;;;;1.47;0.90;;;;;;;;;;4996945;28;20263;-54
2022/09/20 03:53:25;;;;;;;1.60;1.10;;;;;;;;;;4978037;28;20331;-52
2022/09/20 03:56:17;;;;;;;1.50;0.90;;;;;;;;;;5002520;28;20634;-53
2022/09/20 03:59:02;;;;;;;1.53;0.90;;;;;;;;;;4997856;28;20231;-53
2022/09/20 04:01:48;;;;;;;1.00;0.90;;;;;;;;;;4995540;28;20289;-51
2022/09/20 04:04:32;;;;;;;4.37;1.57;;;;;;;;;;5002379;28;20207;-51
2022/09/20 04:07:15;;;;;;;1.17;0.80;;;;;;;;;;5002778;28;20287;-54
2022/09/20 04:09:55;;;;;;;3.10;1.00;;;;;;;;;;4980580;28;20248;-53
2022/09/20 04:12:36;;;;;;;1.27;1.17;;;;;;;;;;4979695;28;20256;-52
2022/09/20 04:15:19;;;;;;;1.00;0.90;;;;;;;;;;4995357;28;20287;-53
2022/09/20 04:18:18;;;;;;;1.67;1.07;;;;;;;;;;4977641;28;20223;-53
2022/09/20 04:20:54;;;;;;;1.23;0.80;;;;;;;;;;4987978;28;20204;-55
2022/09/20 04:23:46;;;;;;;1.67;1.07;;;;;;;;;;4967708;28;20868;-56
2022/09/20 04:26:14;;;;;;;1.43;0.90;;;;;;;;;;4983642;28;20240;-59
2022/09/20 04:28:47;;;;;;;1.97;1.00;;;;;;;;;;4999602;28;20263;-57
2022/09/20 04:31:26;;;;;;;2.07;1.00;;;;;;;;;;4981448;28;20240;-52
2022/09/20 04:33:54;;;;;;;1.33;0.87;;;;;;;;;;4999904;28;20765;-51
2022/09/20 04:36:35;;;;;;;1.43;1.00;;;;;;;;;;4979359;28;20204;-53
2022/09/20 04:39:10;;;;;;;2.70;0.90;;;;;;;;;;4979268;28;20242;-52
2022/09/20 04:41:58;;;;;;;1.13;0.90;;;;;;;;;;4987221;28;20196;-52
2022/09/20 04:45:04;;;;;;;2.47;1.33;;;;;;;;;;5003994;28;20218;-55
2022/09/20 04:48:08;;;;;;;1.23;0.97;;;;;;;;;;4983520;28;20231;-52
2022/09/20 04:51:08;;;;;;;2.03;0.97;;;;;;;;;;5002948;28;20783;-52
2022/09/20 04:53:56;;;;;;;2.23;1.10;;;;;;;;;;4984394;28;20799;-52
2022/09/20 04:56:40;;;;;;;1.10;0.90;;;;;;;;;;5003321;28;20246;-53
2022/09/20 04:59:09;;;;;;;1.57;0.90;;;;;;;;;;4983324;28;20227;-51
2022/09/20 05:01:57;;;;;;;1.50;1.10;;;;;;;;;;4994929;28;20196;-53
2022/09/20 05:04:55;;;;;;;1.27;0.83;;;;;;;;;;4978294;28;20546;-52
2022/09/20 05:07:42;;;;;;;1.87;1.20;;;;;;;;;;5005938;28;20625;-52
2022/09/20 05:10:26;;;;;;;3.70;1.10;;;;;;;;;;5003503;28;20251;-51
2022/09/20 05:13:27;;;;;;;4.17;1.90;;;;;;;;;;4989410;28;20320;-51
2022/09/20 05:16:25;;;;;;;3.53;1.77;;;;;;;;;;4986107;28;20204;-53
2022/09/20 05:19:33;;;;;;;2.03;1.60;;;;;;;;;;4989601;28;20211;-51
2022/09/20 05:22:30;;;;;;;2.23;1.40;;;;;;;;;;4976061;28;20612;-56
2022/09/20 05:25:20;;;;;;;1.53;1.10;;;;;;;;;;4977112;28;20235;-52
2022/09/20 05:27:57;;;;;;;1.93;1.10;;;;;;;;;;4997083;28;20228;-54
2022/09/20 05:30:46;;;;;;;2.57;1.43;;;;;;;;;;4978402;28;20236;-54
2022/09/20 05:33:34;;;;;;;3.70;1.50;;;;;;;;;;4987647;28;20711;-53
2022/09/20 05:36:18;;;;;;;2.20;1.30;;;;;;;;;;4990963;28;20196;-55
2022/09/20 05:39:07;;;;;;;1.63;1.23;;;;;;;;;;4983575;28;20228;-52
2022/09/20 05:41:41;;;;;;;2.90;1.43;;;;;;;;;;4970525;28;20251;-62
2022/09/20 05:44:23;;;;;;;3.20;1.50;;;;;;;;;;4964728;28;20244;-62
2022/09/20 05:47:36;;;;;;;3.57;1.57;;;;;;;;;;4988761;28;20297;-62
2022/09/20 05:50:24;;;;;;;2.57;1.60;;;;;;;;;;4952675;28;20309;-62
2022/09/20 05:52:52;;;;;;;3.90;1.37;;;;;;;;;;4991587;28;20311;-61
2022/09/20 05:56:01;;;;;;;4.33;1.77;;;;;;;;;;4988977;28;20283;-62
2022/09/20 05:58:52;;;;;;;1.97;1.30;;;;;;;;;;4998714;28;20291;-60
2022/09/20 06:01:25;;;;;;;2.63;1.70;;;;;;;;;;4982607;28;20225;-61
2022/09/20 06:04:04;;;;;;;2.90;1.47;;;;;;;;;;5003514;28;20259;-61
2022/09/20 06:06:57;;;;;;;3.77;1.70;;;;;;;;;;4996127;28;20203;-62
2022/09/20 06:09:48;;;;;;;2.93;1.77;;;;;;;;;;4995311;28;20248;-63
2022/09/20 06:12:17;;;;;;;4.43;1.50;;;;;;;;;;4994569;28;20304;-62
2022/09/20 06:15:16;;;;;;;2.57;1.50;;;;;;;;;;4991535;28;20219;-59
2022/09/20 06:17:50;;;;;;;3.33;1.60;;;;;;;;;;4997739;28;20234;-69
2022/09/20 06:20:53;;;;;;;4.80;1.40;;;;;;;;;;4982067;28;20619;-65
2022/09/20 06:23:20;;;;;;;3.80;1.67;;;;;;;;;;4997218;28;20216;-65
2022/09/20 06:25:52;;;;;;;4.20;1.63;;;;;;;;;;5006104;28;20670;-67
2022/09/20 06:28:20;;;;;;;2.30;1.40;;;;;;;;;;5004598;28;20647;-64
2022/09/20 06:30:48;;;;;;;3.87;1.60;;;;;;;;;;4988147;28;20305;-64
2022/09/20 06:33:17;;;;;;;4.13;1.43;;;;;;;;;;5003776;28;20315;-64
2022/09/20 06:42:19;;;;;;;2.47;1.50;;;;;;;;;;5005286;28;20250;-64
2022/09/20 06:44:50;;;;;;;1.53;1.27;;;;;;;;;;5006421;28;20682;-65
2022/09/20 06:47:17;;;;;;;6.63;1.70;;;;;;;;;;5006037;28;20251;-64
2022/09/20 06:49:46;;;;;;;2.30;1.33;;;;;;;;;;5006122;28;20247;-67
2022/09/20 06:52:14;;;;;;;1.37;1.10;;;;;;;;;;5003684;28;20388;-65
2022/09/20 06:54:44;;;;;;;2.87;1.60;;;;;;;;;;4979041;28;20306;-68
2022/09/20 06:57:13;;;;;;;3.13;1.40;;;;;;;;;;4999600;28;20232;-70
2022/09/20 06:59:40;;;;;;;3.90;1.40;;;;;;;;;;5009664;28;20216;-66
2022/09/20 07:02:07;;;;;;;2.77;1.20;;;;;;;;;;5005174;28;20658;-65
2022/09/20 07:04:33;;;;;;;2.23;1.50;;;;;;;;;;5001880;28;20648;-63
2022/09/20 07:07:01;;;;;;;2.17;1.30;;;;;;;;;;4984625;28;20755;-64
2022/09/20 07:09:33;;;;;;;2.47;1.43;;;;;;;;;;5000985;28;20243;-65
2022/09/20 07:12:00;;;;;;;2.13;1.40;;;;;;;;;;4989416;28;20672;-65
2022/09/20 07:14:27;;;;;;;2.00;1.30;;;;;;;;;;4998035;28;20220;-66
2022/09/20 07:16:53;;;;;;;3.00;1.20;;;;;;;;;;4986648;28;20295;-64
2022/09/20 07:19:21;;;;;;;2.03;1.33;;;;;;;;;;4998091;28;20681;-69
2022/09/20 07:21:48;;;;;;;1.63;1.20;;;;;;;;;;5003283;28;20636;-67
2022/09/20 07:24:14;;;;;;;3.40;1.60;;;;;;;;;;5003110;28;20219;-66
2022/09/20 07:26:54;;;;;;;2.53;1.15;;;;;;;;;;5002037;28;20236;-65
2022/09/20 07:29:21;;;;;;;3.22;1.52;;;;;;;;;;4979492;28;20251;-69
2022/09/20 07:31:49;;;;;;;1.58;1.27;;;;;;;;;;4998197;28;20676;-64
2022/09/20 07:34:19;;;;;;;3.95;1.35;;;;;;;;;;5001735;28;20598;-62
2022/09/20 07:36:46;;;;;;;4.70;1.50;;;;;;;;;;4997794;28;20221;-71
2022/09/20 07:39:13;;;;;;;2.85;1.52;;;;;;;;;;4991057;28;20296;-76
2022/09/20 07:41:39;;;;;;;2.97;1.60;;;;;;;;;;4984031;28;20220;-72
2022/09/20 07:44:23;;;;;;;1.60;1.10;;;;;;;;;;5000591;28;20271;-67
2022/09/20 07:46:57;;;;;;;1.48;1.30;;;;;;;;;;5002094;28;21276;-73
2022/09/20 07:49:25;;;;;;;2.88;1.38;;;;;;;;;;4983407;28;20223;-69
2022/09/20 07:51:52;;;;;;;1.50;1.35;;;;;;;;;;5005617;28;20196;-68
2022/09/20 07:54:19;;;;;;;4.45;1.40;;;;;;;;;;4975465;28;20282;-69
2022/09/20 07:56:46;;;;;;;3.58;1.33;;;;;;;;;;5000707;28;20295;-72
2022/09/20 07:59:12;;;;;;;2.40;1.30;;;;;;;;;;4980430;28;20250;-69
2022/09/20 08:01:39;;;;;;;2.40;1.20;;;;;;;;;;5001875;28;20235;-69
2022/09/20 08:04:07;;;;;;;3.33;1.20;;;;;;;;;;4996942;28;20240;-70
2022/09/20 08:06:44;;;;;;;4.35;1.73;;;;;;;;;;4997381;28;20220;-69
2022/09/20 08:09:11;;;;;;;3.85;1.63;;;;;;;;;;4992604;28;20261;-69
2022/09/20 08:11:38;;;;;;;2.55;1.40;;;;;;;;;;4964831;28;20220;-52
2022/09/20 08:14:06;;;;;;;2.60;1.15;;;;;;;;;;4978552;28;20628;-56
2022/09/20 08:16:47;;;;;;;1.27;1.00;;;;;;;;;;5003803;28;20541;-55
2022/09/20 08:19:15;;;;;;;2.50;1.20;;;;;;;;;;5000046;28;20207;-56
2022/09/20 08:21:43;;;;;;;3.08;1.13;;;;;;;;;;4993704;28;20309;-55
2022/09/20 08:24:10;;;;;;;4.00;1.10;;;;;;;;;;5001827;28;20216;-56
2022/09/20 08:26:36;;;;;;;2.00;1.35;;;;;;;;;;4990304;28;20683;-55
2022/09/20 08:29:06;;;;;;;2.95;1.30;;;;;;;;;;5007729;28;20243;-58
2022/09/20 08:31:36;;;;;;;1.70;1.10;;;;;;;;;;4998178;28;20219;-58
2022/09/20 08:34:07;;;;;;;1.88;1.33;;;;;;;;;;4998933;28;20500;-55
2022/09/20 08:36:37;;;;;;;3.30;1.70;;;;;;;;;;5008817;28;20200;-56
2022/09/20 08:39:04;;;;;;;1.60;1.10;;;;;;;;;;4994893;28;20204;-55
2022/09/20 08:41:57;;;;;;;2.03;1.00;;;;;;;;;;5004456;28;20676;-55
2022/09/20 08:44:27;;;;;;;2.88;1.20;;;;;;;;;;4998519;28;20204;-58
2022/09/20 08:47:10;;;;;;;2.28;1.20;;;;;;;;;;4974788;28;20258;-57
2022/09/20 08:49:37;;;;;;;2.05;1.15;;;;;;;;;;4979349;28;20242;-66
2022/09/20 08:52:04;;;;;;;2.08;1.15;;;;;;;;;;4967564;28;20197;-64
2022/09/20 08:54:35;;;;;;;1.45;1.20;;;;;;;;;;4980233;28;20201;-65
2022/09/20 08:57:09;;;;;;;13.05;2.35;;;;;;;;;;4997051;28;20299;-65
2022/09/20 08:59:35;;;;;;;2.03;1.30;;;;;;;;;;4982924;28;20295;-63
2022/09/20 09:02:02;;;;;;;2.03;1.30;;;;;;;;;;4994104;28;20288;-63
2022/09/20 09:04:34;;;;;;;1.45;1.05;;;;;;;;;;4991174;28;20197;-62
2022/09/20 09:07:01;;;;;;;2.05;1.20;;;;;;;;;;4982463;28;20688;-62
2022/09/20 09:09:28;;;;;;;1.95;1.20;;;;;;;;;;5001856;28;20658;-62
2022/09/20 09:11:55;;;;;;;2.38;1.20;;;;;;;;;;4978881;28;20295;-62
2022/09/20 09:14:47;;;;;;;1.90;1.00;;;;;;;;;;4998940;28;20201;-62
2022/09/20 09:17:19;;;;;;;2.13;1.27;;;;;;;;;;5005182;28;20196;-60
2022/09/20 09:20:17;;;;;;;1.70;1.20;;;;;;;;;;4999087;28;20798;-62
2022/09/20 09:22:44;;;;;;;2.30;1.20;;;;;;;;;;4998369;28;20319;-63
2022/09/20 09:25:15;;;;;;;2.03;1.13;;;;;;;;;;4982500;28;20641;-63
2022/09/20 09:27:51;;;;;;;3.58;1.70;;;;;;;;;;5001478;28;20196;-62
2022/09/20 09:30:41;;;;;;;3.15;1.20;;;;;;;;;;5005211;28;20266;-64
2022/09/20 09:33:27;;;;;;;2.47;1.17;;;;;;;;;;4987615;28;20260;-63
2022/09/20 09:35:57;;;;;;;1.77;1.13;;;;;;;;;;4967953;28;20197;-64
2022/09/20 09:38:29;;;;;;;2.47;1.40;;;;;;;;;;5002047;28;20196;-63
2022/09/20 09:40:58;;;;;;;3.42;1.83;;;;;;;;;;5004558;28;20200;-61
2022/09/20 09:43:31;;;;;;;1.58;1.20;;;;;;;;;;5007447;28;20270;-62
2022/09/20 09:46:17;;;;;;;2.55;1.40;;;;;;;;;;4985369;28;20235;-61
2022/09/20 09:48:48;;;;;;;3.60;1.52;;;;;;;;;;5005070;28;20205;-62
2022/09/20 09:51:17;;;;;;;1.45;1.10;;;;;;;;;;5008091;28;20620;-61
2022/09/20 09:53:45;;;;;;;5.07;1.65;;;;;;;;;;5006179;28;20307;-61
2022/09/20 09:56:28;;;;;;;2.00;1.20;;;;;;;;;;4989279;28;20715;-62
2022/09/20 09:59:16;;;;;;;4.32;1.27;;;;;;;;;;4997926;28;20715;-64
2022/09/20 10:02:03;;;;;;;2.67;1.10;;;;;;;;;;4988350;28;20286;-61
2022/09/20 10:04:45;;;;;;;2.65;1.23;;;;;;;;;;4959115;28;20200;-61
2022/09/20 10:07:50;;;;;;;3.47;1.20;;;;;;;;;;4982956;28;20227;-62
2022/09/20 10:10:35;;;;;;;1.85;1.30;;;;;;;;;;4980975;28;20284;-61
2022/09/20 10:13:15;;;;;;;4.63;1.35;;;;;;;;;;5006288;28;20270;-60
2022/09/20 10:16:01;;;;;;;1.73;1.00;;;;;;;;;;4997284;28;20231;-63
2022/09/20 10:18:46;;;;;;;4.35;1.10;;;;;;;;;;5005499;28;20634;-63
2022/09/20 10:21:44;;;;;;;3.30;1.20;;;;;;;;;;5003380;28;20672;-60
2022/09/20 10:24:13;;;;;;;1.60;1.13;;;;;;;;;;4981240;28;20267;-61
2022/09/20 10:26:43;;;;;;;2.45;1.30;;;;;;;;;;4993192;28;20232;-61
2022/09/20 10:29:41;;;;;;;3.38;1.20;;;;;;;;;;4992388;28;20232;-61
2022/09/20 10:32:21;;;;;;;2.05;1.20;;;;;;;;;;4999141;28;20248;-61
2022/09/20 10:34:59;;;;;;;5.00;1.48;;;;;;;;;;4982421;28;20342;-61
2022/09/20 10:37:29;;;;;;;3.30;1.20;;;;;;;;;;5002373;28;20195;-49
2022/09/20 10:40:21;;;;;;;2.42;1.30;;;;;;;;;;4989134;28;20237;-51
2022/09/20 10:46:01;;;;;;;1.92;1.15;;;;;;;;;;4986399;28;20228;-61
2022/09/20 10:48:52;;;;;;;2.72;1.38;;;;;;;;;;4983333;28;20200;-60
2022/09/20 10:51:24;;;;;;;2.53;1.30;;;;;;;;;;4972142;28;20259;-61
2022/09/20 10:54:25;;;;;;;1.98;1.20;;;;;;;;;;5000254;28;20726;-61
2022/09/20 10:57:02;;;;;;;3.50;1.20;;;;;;;;;;4981283;28;20228;-54
2022/09/20 10:59:37;;;;;;;3.63;1.50;;;;;;;;;;4982445;28;20628;-61
2022/09/20 11:02:25;;;;;;;3.85;1.27;;;;;;;;;;4986337;28;20199;-61
2022/09/20 11:05:11;;;;;;;2.03;1.10;;;;;;;;;;4997196;28;20260;-60
2022/09/20 11:07:58;;;;;;;2.35;1.25;;;;;;;;;;5003730;28;20537;-60
2022/09/20 11:10:28;;;;;;;1.35;1.15;;;;;;;;;;5003438;28;20224;-59
2022/09/20 11:13:01;;;;;;;3.70;1.40;;;;;;;;;;5001681;28;20328;-60
2022/09/20 11:15:45;;;;;;;2.67;1.10;;;;;;;;;;4999977;28;20900;-60
2022/09/20 11:18:40;;;;;;;2.58;1.10;;;;;;;;;;5007584;28;20259;-60
2022/09/20 11:21:24;;;;;;;4.35;1.20;;;;;;;;;;4976608;28;20192;-62
2022/09/20 11:24:01;;;;;;;2.80;1.13;;;;;;;;;;4988803;28;20278;-63
2022/09/20 11:26:37;;;;;;;3.53;1.45;;;;;;;;;;4987591;28;20731;-62
2022/09/20 11:29:27;;;;;;;1.65;1.13;;;;;;;;;;4990812;28;20223;-63
2022/09/20 11:32:07;;;;;;;1.42;1.00;;;;;;;;;;4987848;28;20311;-62
2022/09/20 11:34:47;;;;;;;5.15;1.30;;;;;;;;;;4982901;28;20196;-65
2022/09/20 11:37:14;;;;;;;1.33;0.95;;;;;;;;;;4982582;28;20283;-62
2022/09/20 11:39:53;;;;;;;1.35;1.08;;;;;;;;;;4999169;28;20196;-62
2022/09/20 11:42:32;;;;;;;2.25;1.15;;;;;;;;;;4996189;28;20274;-63
2022/09/20 11:44:58;;;;;;;2.15;1.20;;;;;;;;;;4978745;28;20235;-63
2022/09/20 11:47:41;;;;;;;3.30;1.08;;;;;;;;;;4981238;28;20225;-64
2022/09/20 11:50:44;;;;;;;3.08;1.00;;;;;;;;;;4996867;28;20304;-64
2022/09/20 11:53:23;;;;;;;2.08;1.00;;;;;;;;;;4983063;28;20217;-63
2022/09/20 11:55:49;;;;;;;2.20;1.25;;;;;;;;;;4986673;28;20235;-65
2022/09/20 11:58:19;;;;;;;4.25;1.00;;;;;;;;;;4998556;28;20290;-57
2022/09/20 12:00:48;;;;;;;1.40;1.10;;;;;;;;;;4992491;28;20681;-61
2022/09/20 12:03:36;;;;;;;4.30;1.52;;;;;;;;;;4997272;28;20296;-61
2022/09/20 12:06:07;;;;;;;2.08;1.02;;;;;;;;;;5000367;28;20197;-59
2022/09/20 12:08:39;;;;;;;2.30;1.25;;;;;;;;;;4977764;28;20259;-58
2022/09/20 12:11:09;;;;;;;2.65;1.45;;;;;;;;;;4986806;28;20738;-58
2022/09/20 12:13:51;;;;;;;2.03;1.05;;;;;;;;;;4983618;28;20928;-57
2022/09/20 12:16:35;;;;;;;4.32;1.27;;;;;;;;;;4981872;28;20224;-60
2022/09/20 12:19:06;;;;;;;2.85;1.23;;;;;;;;;;4980649;28;20224;-59
2022/09/20 12:21:57;;;;;;;1.92;1.05;;;;;;;;;;4999517;28;20691;-58
2022/09/20 12:24:27;;;;;;;1.17;1.02;;;;;;;;;;5003694;28;20227;-59
2022/09/20 12:26:58;;;;;;;2.33;1.38;;;;;;;;;;4993363;28;20581;-58
2022/09/20 12:29:30;;;;;;;2.78;1.38;;;;;;;;;;5004053;28;20283;-57
2022/09/20 12:31:59;;;;;;;2.50;1.55;;;;;;;;;;4982933;28;20684;-58
2022/09/20 12:34:26;;;;;;;3.67;1.20;;;;;;;;;;4985193;28;20564;-60
2022/09/20 12:36:52;;;;;;;2.78;1.15;;;;;;;;;;4999388;28;20306;-65
2022/09/20 12:39:27;;;;;;;2.65;1.13;;;;;;;;;;4996663;28;20332;-61
2022/09/20 12:42:10;;;;;;;7.55;1.25;;;;;;;;;;4983150;28;20219;-61
2022/09/20 12:44:38;;;;;;;1.60;1.00;;;;;;;;;;4999379;28;20246;-60
2022/09/20 12:47:14;;;;;;;2.67;1.60;;;;;;;;;;5005857;28;20228;-56
2022/09/20 12:52:57;;;;;;;1.75;1.35;;;;;;;;;;5006404;28;20224;-58
2022/09/20 12:55:39;;;;;;;2.22;1.00;;;;;;;;;;4992413;28;20271;-61
2022/09/20 12:58:15;;;;;;;3.85;1.15;;;;;;;;;;5007014;28;20255;-60
2022/09/20 13:00:48;;;;;;;2.60;1.45;;;;;;;;;;4982833;28;20262;-57
2022/09/20 13:03:14;;;;;;;2.28;1.05;;;;;;;;;;5000635;28;20721;-58
2022/09/20 13:05:45;;;;;;;2.40;1.17;;;;;;;;;;5008294;28;20228;-58
2022/09/20 13:08:15;;;;;;;4.22;1.00;;;;;;;;;;5003574;28;20231;-57
2022/09/20 13:11:05;;;;;;;2.42;1.40;;;;;;;;;;4989824;28;20697;-61
2022/09/20 13:13:40;;;;;;;1.52;1.13;;;;;;;;;;4975910;28;20803;-57
2022/09/20 13:16:21;;;;;;;1.40;0.90;;;;;;;;;;4991682;28;20223;-56
2022/09/20 13:18:57;;;;;;;4.57;1.17;;;;;;;;;;4992549;28;20258;-60
2022/09/20 13:21:24;;;;;;;2.38;1.20;;;;;;;;;;4989289;28;20227;-59
2022/09/20 13:23:53;;;;;;;2.33;1.00;;;;;;;;;;4983853;28;20224;-59
2022/09/20 13:26:24;;;;;;;2.08;1.30;;;;;;;;;;5004083;28;20279;-59
2022/09/20 13:28:53;;;;;;;1.58;1.27;;;;;;;;;;5008366;28;20224;-57
2022/09/20 13:31:19;;;;;;;1.75;1.10;;;;;;;;;;5001046;28;20251;-59
2022/09/20 13:33:46;;;;;;;1.88;1.13;;;;;;;;;;5005286;28;20218;-59
2022/09/20 13:36:13;;;;;;;2.45;1.20;;;;;;;;;;4986721;28;20236;-56
2022/09/20 13:38:40;;;;;;;2.35;1.13;;;;;;;;;;5007277;28;20542;-57
2022/09/20 13:41:11;;;;;;;2.97;1.20;;;;;;;;;;5003798;28;20681;-60
2022/09/20 13:43:42;;;;;;;2.28;1.30;;;;;;;;;;4983242;28;20456;-56
2022/09/20 13:46:13;;;;;;;1.30;1.02;;;;;;;;;;4989712;28;20267;-58
2022/09/20 13:48:39;;;;;;;1.85;1.05;;;;;;;;;;5011003;28;20263;-57
2022/09/20 13:51:22;;;;;;;2.63;0.98;;;;;;;;;;5007512;28;20228;-57
2022/09/20 13:53:48;;;;;;;3.58;1.17;;;;;;;;;;5009289;28;20251;-61
2022/09/20 13:56:28;;;;;;;1.65;1.13;;;;;;;;;;5013843;28;20223;-58
2022/09/20 13:58:58;;;;;;;1.38;1.05;;;;;;;;;;4999826;28;20222;-58
2022/09/20 14:01:30;;;;;;;1.80;1.30;;;;;;;;;;4997317;28;20193;-57
2022/09/20 14:04:04;;;;;;;2.53;1.05;;;;;;;;;;5000035;28;20252;-58
2022/09/20 14:06:31;;;;;;;1.15;1.00;;;;;;;;;;4986549;28;20231;-57
2022/09/20 14:08:59;;;;;;;1.50;1.17;;;;;;;;;;4996224;28;20208;-60
2022/09/20 14:11:28;;;;;;;2.20;1.05;;;;;;;;;;4984011;28;20299;-57
2022/09/20 14:14:00;;;;;;;3.13;1.08;;;;;;;;;;5008222;28;20250;-59
2022/09/20 14:16:30;;;;;;;1.42;1.10;;;;;;;;;;4992004;28;20251;-57
2022/09/20 14:18:58;;;;;;;3.08;1.02;;;;;;;;;;4970190;28;20223;-59
2022/09/20 14:21:30;;;;;;;1.48;0.93;;;;;;;;;;4979326;28;20645;-57
2022/09/20 14:24:01;;;;;;;1.60;1.10;;;;;;;;;;5002694;28;20244;-56
2022/09/20 14:26:38;;;;;;;1.75;1.00;;;;;;;;;;4983547;28;20263;-62
2022/09/20 14:29:33;;;;;;;1.58;0.80;;;;;;;;;;5000966;28;20229;-60
2022/09/20 14:32:04;;;;;;;1.38;0.93;;;;;;;;;;4997464;28;20248;-56
2022/09/20 14:34:35;;;;;;;1.05;0.95;;;;;;;;;;4983707;28;20266;-58
2022/09/20 14:37:05;;;;;;;1.02;0.90;;;;;;;;;;4989617;28;20637;-57
2022/09/20 14:39:45;;;;;;;2.30;1.02;;;;;;;;;;4981526;28;20197;-57
2022/09/20 14:42:24;;;;;;;1.77;0.88;;;;;;;;;;4998758;28;20973;-59
2022/09/20 14:44:51;;;;;;;2.55;0.90;;;;;;;;;;4999219;28;20235;-59
2022/09/20 14:47:26;;;;;;;1.98;1.00;;;;;;;;;;4988123;28;20254;-55
2022/09/20 14:49:52;;;;;;;1.80;0.80;;;;;;;;;;4980042;28;20204;-58
2022/09/20 14:52:32;;;;;;;1.33;0.90;;;;;;;;;;4989213;28;20669;-56
2022/09/20 14:55:16;;;;;;;1.35;0.98;;;;;;;;;;4991762;28;20231;-57
2022/09/20 14:57:44;;;;;;;1.20;0.98;;;;;;;;;;4997059;28;20223;-56
2022/09/20 15:00:15;;;;;;;1.10;1.00;;;;;;;;;;4980428;28;20255;-57
2022/09/20 15:02:43;;;;;;;1.33;0.98;;;;;;;;;;5007426;28;20742;-56
2022/09/20 15:05:19;;;;;;;1.33;1.05;;;;;;;;;;4986485;28;20203;-56
2022/09/20 15:07:46;;;;;;;1.50;1.00;;;;;;;;;;5000157;28;20232;-55
2022/09/20 15:10:13;;;;;;;1.83;1.10;;;;;;;;;;5002988;28;20228;-56
2022/09/20 15:12:41;;;;;;;1.42;1.17;;;;;;;;;;5004837;28;20250;-57
2022/09/20 15:15:13;;;;;;;1.20;0.90;;;;;;;;;;5009342;28;20235;-56
2022/09/20 15:17:41;;;;;;;1.42;1.15;;;;;;;;;;5008551;28;20235;-55
2022/09/20 15:20:13;;;;;;;1.42;1.05;;;;;;;;;;5005176;28;20297;-57
2022/09/20 15:22:40;;;;;;;1.95;1.00;;;;;;;;;;4981545;28;20275;-57
2022/09/20 15:25:12;;;;;;;1.15;1.00;;;;;;;;;;5005530;28;20227;-57
2022/09/20 15:27:39;;;;;;;1.70;1.00;;;;;;;;;;5000039;28;20229;-58
2022/09/20 15:30:08;;;;;;;0.80;0.70;;;;;;;;;;5000337;28;20657;-57
2022/09/20 15:32:35;;;;;;;1.83;1.02;;;;;;;;;;4998962;28;20279;-56
2022/09/20 15:35:01;;;;;;;1.42;1.00;;;;;;;;;;4994084;28;20231;-57
2022/09/20 15:37:27;;;;;;;1.80;1.08;;;;;;;;;;5000083;28;20250;-56
2022/09/20 15:39:54;;;;;;;1.00;0.80;;;;;;;;;;5005122;28;20515;-57
2022/09/20 15:42:20;;;;;;;1.83;1.15;;;;;;;;;;5003169;28;20223;-57
2022/09/20 15:44:49;;;;;;;1.15;1.00;;;;;;;;;;5000591;28;20232;-60
2022/09/20 15:47:16;;;;;;;3.75;1.00;;;;;;;;;;4986284;28;20196;-57
2022/09/20 15:49:45;;;;;;;1.52;0.90;;;;;;;;;;5000007;28;20231;-61
2022/09/20 15:52:12;;;;;;;1.00;0.75;;;;;;;;;;5002705;28;20335;-60